KBTM/BTM METAR and TAF weather

Enter ICAO airport designator
Station Type Date Time Source
KBTM METAR 2020/04/05 14:53 UTC NOAA

KBTM 051453Z AUTO 19004KT 10SM SCT080 01/M04 A2964 RMK AO2 SLP045 T00111044 51012


Station Type Date Time Source
KBTM Decoded METAR 2020/04/05 14:53 UTC NOAA

BERT MOONEY AIRPORT, MT, United States (KBTM) 45-58N 112-30W 1688M
Apr 05, 2020 - 10:53 AM EDT / 2020.04.05 1453 UTC
Wind: from the S (190 degrees) at 5 MPH (4 KT):0
Visibility: 10 mile(s):0
Sky conditions: partly cloudy
Temperature: 34.0 F (1.1 C)
Windchill: 30 F (-1 C):1
Dew Point: 24.1 F (-4.4 C)
Relative Humidity: 66%
Pressure (altimeter): 29.64 in. Hg (1003 hPa)
Pressure tendency: 0.04 inches (1.2 hPa) higher than three hours ago
ob: KBTM 051453Z AUTO 19004KT 10SM SCT080 01/M04 A2964 RMK AO2 SLP045 T00111044 51012
cycle: 15

Station Type Date Time Source
KBTM TAF 2020/04/05 12:42 UTC NOAA

TAF KBTM 051139Z 0512/0612 VRB05KT P6SM BKN070
FM051500 19006KT P6SM BKN080
FM051900 20010G18KT P6SM BKN100
FM052200 23013G24KT P6SM -SHRASN SCT050 OVC070
FM060200 16007KT P6SM BKN100

Example: see airport list